createdAt,value
2019-01-05T00:02:06.211Z,1.90
2019-01-05T00:04:57.750Z,1.90
2019-01-05T00:08:04.117Z,1.90
2019-01-05T00:11:05.033Z,1.90
2019-01-05T00:14:01.879Z,1.80
2019-01-05T00:16:49.438Z,1.90
2019-01-05T00:19:53.625Z,1.90
2019-01-05T00:22:48.082Z,1.90
2019-01-05T00:25:35.615Z,1.90
2019-01-05T00:28:36.522Z,1.90
2019-01-05T00:31:23.751Z,1.90
2019-01-05T00:34:17.403Z,1.90
2019-01-05T00:37:12.796Z,1.90
2019-01-05T00:40:17.104Z,1.80
2019-01-05T00:43:18.932Z,1.90
2019-01-05T00:46:15.562Z,1.90
2019-01-05T00:49:03.836Z,1.90
2019-01-05T00:51:59.375Z,1.90
2019-01-05T00:54:48.660Z,2.00
2019-01-05T00:57:41.845Z,1.90
2019-01-05T01:00:30.296Z,1.90
2019-01-05T01:03:19.337Z,1.90
2019-01-05T01:06:26.096Z,1.90
2019-01-05T01:09:14.011Z,1.80
2019-01-05T01:12:00.531Z,1.80
2019-01-05T01:14:53.061Z,1.80
2019-01-05T01:17:43.827Z,1.90
2019-01-05T01:20:42.307Z,1.80
2019-01-05T01:23:31.019Z,1.80
2019-01-05T01:26:19.763Z,1.80
2019-01-05T01:29:08.853Z,1.80
2019-01-05T01:35:01.346Z,2.00
2019-01-05T01:38:25.208Z,1.80
2019-01-05T01:41:10.183Z,1.70
2019-01-05T01:44:03.115Z,1.70
2019-01-05T01:46:50.567Z,1.70
2019-01-05T01:49:37.803Z,1.80
2019-01-05T01:52:26.077Z,1.70
2019-01-05T01:55:13.573Z,1.70
2019-01-05T01:58:01.649Z,1.70
2019-01-05T02:01:08.584Z,1.70
2019-01-05T02:03:57.081Z,1.60
2019-01-05T02:06:56.840Z,1.60
2019-01-05T02:09:48.208Z,1.70
2019-01-05T02:12:38.300Z,1.60
2019-01-05T02:15:25.336Z,1.60
2019-01-05T02:18:46.975Z,1.50
2019-01-05T02:22:29.978Z,1.60
2019-01-05T02:25:54.013Z,1.60
2019-01-05T02:29:36.589Z,1.60
2019-01-05T02:33:25.436Z,1.60
2019-01-05T02:36:34.083Z,1.60
2019-01-05T02:40:06.152Z,1.50
2019-01-05T02:43:35.308Z,1.60
2019-01-05T02:47:15.515Z,1.60
2019-01-05T02:51:01.137Z,1.60
2019-01-05T02:54:23.753Z,1.60
2019-01-05T02:57:48.235Z,1.60
2019-01-05T03:01:40.379Z,1.60
2019-01-05T03:05:30.698Z,1.60
2019-01-05T03:09:25.703Z,1.60
2019-01-05T03:12:48.538Z,1.60
2019-01-05T03:16:22.753Z,1.60
2019-01-05T03:19:44.952Z,1.60
2019-01-05T03:23:11.568Z,1.60
2019-01-05T03:26:39.818Z,1.70
2019-01-05T03:30:08.629Z,1.60
2019-01-05T03:33:47.379Z,1.70
2019-01-05T03:37:25.196Z,1.70
2019-01-05T03:41:08.422Z,1.70
2019-01-05T03:44:39.246Z,1.70
2019-01-05T03:48:43.170Z,1.70
2019-01-05T03:52:23.047Z,1.70
2019-01-05T03:55:45.837Z,1.70
2019-01-05T03:59:11.526Z,1.70
2019-01-05T04:02:53.129Z,1.70
2019-01-05T04:06:23.647Z,1.80
2019-01-05T04:09:46.180Z,1.70
2019-01-05T04:13:14.218Z,1.70
2019-01-05T04:16:58.218Z,1.70
2019-01-05T04:20:15.799Z,1.80
2019-01-05T04:24:01.115Z,1.70
2019-01-05T04:27:16.097Z,1.60
2019-01-05T04:30:52.155Z,1.70
2019-01-05T04:34:32.333Z,1.70
2019-01-05T04:38:00.689Z,1.70
2019-01-05T04:41:18.033Z,1.70
2019-01-05T04:45:14.976Z,1.80
2019-01-05T04:48:38.963Z,1.80
2019-01-05T04:52:14.050Z,1.70
2019-01-05T04:55:44.855Z,1.70
2019-01-05T04:59:21.465Z,1.60
2019-01-05T05:03:04.064Z,1.70
2019-01-05T05:06:37.147Z,1.70
2019-01-05T05:10:09.483Z,1.70
2019-01-05T05:13:41.774Z,1.70
2019-01-05T05:17:17.256Z,1.70
2019-01-05T05:20:58.555Z,1.70
2019-01-05T05:24:28.313Z,1.70
2019-01-05T05:28:12.770Z,1.70
2019-01-05T05:31:55.487Z,1.70
2019-01-05T05:35:26.391Z,1.60
2019-01-05T05:39:03.159Z,1.60
2019-01-05T05:42:20.021Z,1.70
2019-01-05T05:45:56.163Z,1.70
2019-01-05T05:49:15.847Z,1.70
2019-01-05T05:52:33.711Z,1.70
2019-01-05T05:55:57.187Z,1.70
2019-01-05T05:59:39.789Z,1.80
2019-01-05T06:03:15.320Z,1.80
2019-01-05T06:06:49.053Z,1.70
2019-01-05T06:10:34.608Z,1.80
2019-01-05T06:14:15.662Z,1.80
2019-01-05T06:18:00.327Z,1.80
2019-01-05T06:21:56.467Z,1.70
2019-01-05T06:25:39.518Z,1.70
2019-01-05T06:29:03.396Z,1.60
2019-01-05T06:32:27.111Z,1.70
2019-01-05T06:35:40.786Z,1.70
2019-01-05T06:39:20.709Z,1.80
2019-01-05T06:42:48.838Z,1.70
2019-01-05T06:46:36.132Z,1.70
2019-01-05T06:49:55.964Z,1.80
2019-01-05T06:53:18.471Z,1.80
2019-01-05T06:56:55.336Z,1.80
2019-01-05T07:00:36.888Z,1.80
2019-01-05T07:04:12.120Z,1.80
2019-01-05T07:07:58.968Z,1.90
2019-01-05T07:11:33.104Z,1.90
2019-01-05T07:15:28.274Z,1.80
2019-01-05T07:19:42.695Z,1.80
2019-01-05T07:23:10.131Z,1.80
2019-01-05T07:26:40.059Z,1.80
2019-01-05T07:30:12.866Z,1.80
2019-01-05T07:33:38.460Z,1.80
2019-01-05T07:36:52.666Z,1.90
2019-01-05T07:40:21.432Z,1.80
2019-01-05T07:43:47.510Z,1.80
2019-01-05T07:47:15.986Z,1.90
2019-01-05T07:50:44.551Z,1.90
2019-01-05T07:54:34.661Z,2.00
2019-01-05T07:58:14.400Z,1.90
2019-01-05T08:02:02.093Z,1.90
2019-01-05T08:05:24.063Z,1.90
2019-01-05T08:09:01.951Z,2.00
2019-01-05T08:12:37.371Z,1.90
2019-01-05T08:16:08.413Z,2.00
2019-01-05T08:19:34.834Z,1.80
2019-01-05T08:22:56.443Z,2.00
2019-01-05T08:26:19.093Z,1.90
2019-01-05T08:29:38.391Z,1.90
2019-01-05T08:33:46.667Z,1.90
2019-01-05T08:37:22.668Z,1.90
2019-01-05T08:40:45.548Z,1.90
2019-01-05T08:44:08.104Z,1.90
2019-01-05T08:47:49.559Z,1.80
2019-01-05T08:51:25.166Z,1.90
2019-01-05T08:54:51.713Z,1.90
2019-01-05T08:58:28.744Z,1.80
2019-01-05T09:02:10.442Z,1.90
2019-01-05T09:05:38.074Z,2.00
2019-01-05T09:09:35.192Z,2.00
2019-01-05T09:13:15.419Z,1.90
2019-01-05T09:16:52.295Z,2.00
2019-01-05T09:20:36.469Z,2.00
2019-01-05T09:24:15.053Z,1.90
2019-01-05T09:27:57.242Z,1.90
2019-01-05T09:31:41.184Z,2.00
2019-01-05T09:35:12.403Z,1.90
2019-01-05T09:38:36.181Z,2.00
2019-01-05T09:42:04.395Z,2.00
2019-01-05T09:45:29.602Z,1.90
2019-01-05T09:49:20.654Z,2.00
2019-01-05T09:53:03.496Z,2.00
2019-01-05T09:56:39.634Z,2.00
2019-01-05T10:00:12.258Z,2.00
2019-01-05T10:03:59.383Z,1.90
2019-01-05T10:07:18.521Z,1.90
2019-01-05T10:11:17.956Z,2.00
2019-01-05T10:14:43.656Z,1.90
2019-01-05T10:18:13.639Z,2.00
2019-01-05T10:21:45.009Z,1.90
2019-01-05T10:25:12.092Z,2.10
2019-01-05T10:28:38.745Z,2.00
2019-01-05T10:32:19.440Z,2.00
2019-01-05T10:35:53.926Z,2.00
2019-01-05T10:39:33.820Z,2.00
2019-01-05T10:45:54.911Z,2.00
2019-01-05T10:49:51.905Z,2.00
2019-01-05T10:53:35.220Z,2.00
2019-01-05T10:56:56.138Z,2.10
2019-01-05T11:00:54.475Z,2.10
2019-01-05T11:04:14.259Z,2.10
2019-01-05T11:07:52.943Z,2.00
2019-01-05T11:25:32.110Z,2.10
2019-01-05T11:29:11.550Z,2.10
2019-01-05T11:32:35.924Z,2.10
2019-01-05T11:35:45.607Z,2.20
2019-01-05T11:42:51.150Z,2.10
2019-01-05T11:46:11.693Z,2.20
2019-01-05T11:49:57.808Z,2.20
2019-01-05T11:53:45.116Z,2.30
2019-01-05T11:57:42.498Z,2.20
2019-01-05T12:01:10.701Z,2.20
2019-01-05T12:04:55.227Z,2.20
2019-01-05T12:08:28.347Z,2.30
2019-01-05T12:12:05.712Z,2.30
2019-01-05T12:15:36.514Z,2.40
2019-01-05T12:19:03.768Z,2.30
2019-01-05T12:22:22.138Z,2.30
2019-01-05T12:25:44.585Z,2.20
2019-01-05T12:29:22.645Z,2.30
2019-01-05T12:33:00.443Z,2.20
2019-01-05T12:36:33.470Z,2.30
2019-01-05T12:40:38.137Z,2.20
2019-01-05T12:44:16.866Z,2.30
2019-01-05T12:47:47.255Z,2.30
2019-01-05T12:51:16.788Z,2.30
2019-01-05T12:55:12.044Z,2.30
2019-01-05T12:58:56.171Z,2.30
2019-01-05T13:02:09.520Z,2.30
2019-01-05T13:05:42.414Z,2.50
2019-01-05T13:09:09.075Z,2.40
2019-01-05T13:12:46.913Z,2.40
2019-01-05T13:16:17.479Z,2.30
2019-01-05T13:19:57.815Z,2.30
2019-01-05T13:23:46.112Z,2.40
2019-01-05T13:27:17.125Z,2.30
2019-01-05T13:31:05.407Z,2.30
2019-01-05T13:34:42.271Z,2.30
2019-01-05T13:38:06.635Z,2.40
2019-01-05T13:41:45.571Z,2.30
2019-01-05T13:45:01.645Z,2.30
2019-01-05T13:48:44.508Z,2.30
2019-01-05T13:52:17.214Z,2.30
2019-01-05T13:55:08.639Z,2.30
2019-01-05T13:57:56.605Z,2.30
2019-01-05T14:00:45.079Z,2.20
2019-01-05T14:03:49.119Z,2.30
2019-01-05T14:06:37.589Z,2.20
2019-01-05T14:09:30.535Z,2.20
2019-01-05T14:12:18.984Z,2.20
2019-01-05T14:15:07.512Z,2.20
2019-01-05T14:17:54.554Z,2.30
2019-01-05T14:20:40.057Z,2.30
2019-01-05T14:23:27.247Z,2.30
2019-01-05T14:26:14.317Z,2.40
2019-01-05T14:29:05.827Z,2.40
2019-01-05T14:31:53.080Z,2.30
2019-01-05T14:34:47.674Z,2.30
2019-01-05T14:37:44.991Z,2.30
2019-01-05T14:40:45.596Z,2.30
2019-01-05T14:43:49.170Z,2.30
2019-01-05T14:46:35.807Z,2.30
2019-01-05T14:49:24.448Z,2.20
2019-01-05T14:52:13.203Z,2.40
2019-01-05T14:55:00.563Z,2.40
2019-01-05T14:57:58.367Z,2.40
2019-01-05T15:00:45.361Z,2.40
2019-01-05T15:03:46.943Z,2.40
2019-01-05T15:06:34.084Z,2.40
2019-01-05T15:09:23.528Z,2.50
2019-01-05T15:12:11.208Z,2.50
2019-01-05T15:14:59.615Z,2.50
2019-01-05T15:17:51.116Z,2.60
2019-01-05T15:20:47.659Z,2.50
2019-01-05T15:23:42.280Z,2.60
2019-01-05T15:26:34.796Z,2.50
2019-01-05T15:32:36.004Z,2.50
2019-01-05T15:35:23.182Z,2.60
2019-01-05T15:38:07.560Z,2.40
2019-01-05T15:41:02.132Z,2.50
2019-01-05T15:43:49.344Z,2.50
2019-01-05T15:46:46.894Z,2.50
2019-01-05T15:49:28.801Z,2.50
2019-01-05T15:52:32.604Z,2.50
2019-01-05T15:55:25.122Z,2.50
2019-01-05T15:58:12.394Z,2.50
2019-01-05T16:01:12.944Z,2.50
2019-01-05T16:04:01.546Z,2.50
2019-01-05T16:06:56.154Z,2.50
2019-01-05T16:09:43.153Z,2.50
2019-01-05T16:12:51.272Z,2.50
2019-01-05T16:15:38.563Z,2.50
2019-01-05T16:18:27.181Z,2.50
2019-01-05T16:21:16.878Z,2.50
2019-01-05T16:24:04.215Z,2.50
2019-01-05T16:27:05.410Z,2.50
2019-01-05T16:30:00.240Z,2.60
2019-01-05T17:13:12.186Z,2.80
2019-01-05T17:16:08.707Z,2.80
2019-01-05T17:18:55.968Z,2.70
2019-01-05T17:21:45.754Z,2.80
2019-01-05T17:24:37.634Z,2.70
2019-01-05T17:27:29.228Z,2.70
2019-01-05T17:30:20.558Z,2.80
2019-01-05T17:33:21.019Z,2.70
2019-01-05T17:36:11.427Z,2.80
2019-01-05T17:39:06.139Z,2.80
2019-01-05T17:42:06.519Z,2.80
2019-01-05T17:44:47.490Z,2.80
2019-01-05T17:47:53.992Z,2.80
2019-01-05T17:50:42.529Z,2.70
2019-01-05T17:53:34.270Z,2.70
2019-01-05T17:56:21.431Z,2.70
2019-01-05T17:59:27.953Z,2.80
2019-01-05T18:02:15.243Z,2.80
2019-01-05T18:05:09.592Z,2.90
2019-01-05T18:07:56.538Z,2.80
2019-01-05T18:10:45.512Z,2.80
2019-01-05T18:13:28.816Z,2.80
2019-01-05T18:16:15.843Z,2.80
2019-01-05T18:19:10.573Z,2.80
2019-01-05T18:21:57.749Z,2.80
2019-01-05T18:24:44.909Z,2.80
2019-01-05T18:27:33.602Z,2.80
2019-01-05T18:30:20.606Z,2.90
2019-01-05T18:33:21.114Z,2.90
2019-01-05T18:36:27.842Z,2.90
2019-01-05T18:39:28.566Z,2.80
2019-01-05T18:42:16.990Z,2.80
2019-01-05T18:45:23.472Z,2.80
2019-01-05T18:48:10.247Z,2.80
2019-01-05T18:51:00.082Z,2.80
2019-01-05T18:53:54.443Z,2.80
2019-01-05T18:56:44.728Z,2.90
2019-01-05T18:59:31.611Z,2.80
2019-01-05T19:02:17.968Z,2.80
2019-01-05T19:05:04.901Z,2.80
2019-01-05T19:07:51.268Z,2.80
2019-01-05T19:10:38.531Z,2.90
2019-01-05T19:13:26.916Z,2.90
2019-01-05T19:16:15.521Z,2.90
2019-01-05T19:19:02.668Z,2.80
2019-01-05T19:21:50.054Z,2.80
2019-01-05T19:24:56.682Z,2.90
2019-01-05T19:28:00.150Z,2.80
2019-01-05T19:30:48.583Z,2.90
2019-01-05T19:33:35.750Z,2.90
2019-01-05T19:36:33.460Z,2.80
2019-01-05T19:39:27.380Z,2.90
2019-01-05T19:42:15.921Z,2.80
2019-01-05T19:45:17.176Z,2.70
2019-01-05T19:48:05.718Z,2.80
2019-01-05T19:50:54.185Z,2.80
2019-01-05T19:53:51.655Z,2.80
2019-01-05T19:56:43.452Z,2.90
2019-01-05T19:59:30.279Z,2.80
2019-01-05T20:02:21.484Z,2.90
2019-01-05T20:05:13.048Z,2.90
2019-01-05T20:08:01.531Z,2.90
2019-01-05T20:11:07.999Z,2.80
2019-01-05T20:14:08.379Z,2.90
2019-01-05T20:17:05.869Z,2.80
2019-01-05T20:19:48.761Z,2.80
2019-01-05T20:22:35.772Z,2.80
2019-01-05T20:25:23.001Z,2.80
2019-01-05T20:28:23.664Z,2.90
2019-01-05T20:31:18.274Z,2.90
2019-01-05T20:34:05.620Z,2.90
2019-01-05T20:37:00.167Z,2.90
2019-01-05T20:39:47.005Z,2.80
2019-01-05T20:42:50.308Z,2.80
2019-01-05T20:45:41.460Z,2.80
2019-01-05T20:48:32.928Z,2.80
2019-01-05T20:51:36.311Z,2.80
2019-01-05T20:54:25.600Z,2.90
2019-01-05T20:57:31.293Z,2.80
2019-01-05T21:00:19.845Z,2.80
2019-01-05T21:03:14.488Z,2.80
2019-01-05T21:06:16.047Z,2.80
2019-01-05T21:09:02.916Z,2.80
2019-01-05T21:11:54.181Z,2.80
2019-01-05T21:14:48.672Z,2.80
2019-01-05T21:17:35.810Z,2.80
2019-01-05T21:20:27.396Z,2.90
2019-01-05T21:23:24.743Z,2.80
2019-01-05T21:26:24.713Z,2.80
2019-01-05T21:29:18.614Z,2.80
2019-01-05T21:32:16.089Z,2.80
2019-01-05T21:35:13.643Z,2.90
2019-01-05T21:38:02.264Z,2.90
2019-01-05T21:41:04.842Z,2.90
2019-01-05T21:43:55.128Z,2.80
2019-01-05T21:46:42.659Z,2.90
2019-01-05T21:49:29.937Z,2.90
2019-01-05T21:52:18.388Z,2.90
2019-01-05T21:55:19.200Z,2.80
2019-01-05T21:58:06.178Z,2.80
2019-01-05T22:00:53.350Z,2.80
2019-01-05T22:03:40.157Z,2.80
2019-01-05T22:06:27.413Z,2.80
2019-01-05T22:09:15.872Z,2.90
2019-01-05T22:12:13.556Z,2.90
2019-01-05T22:15:08.119Z,2.90
2019-01-05T22:17:55.308Z,2.90
2019-01-05T22:20:41.282Z,2.90
2019-01-05T22:23:28.504Z,2.90
2019-01-05T22:26:15.599Z,3.00
2019-01-05T22:29:22.364Z,2.90
2019-01-05T22:32:09.356Z,3.00
2019-01-05T22:34:56.027Z,2.80
2019-01-05T22:37:43.144Z,2.90
2019-01-05T22:40:47.301Z,2.90
2019-01-05T22:43:39.368Z,2.90
2019-01-05T22:46:27.904Z,2.80
2019-01-05T22:49:15.002Z,2.90
2019-01-05T22:52:10.210Z,2.90
2019-01-05T22:54:57.214Z,2.90
2019-01-05T22:57:44.419Z,3.00
2019-01-05T23:00:50.968Z,3.10
2019-01-05T23:03:45.632Z,2.90
2019-01-05T23:06:32.401Z,3.00
2019-01-05T23:09:33.038Z,3.00
2019-01-05T23:12:25.850Z,3.00
2019-01-05T23:15:14.354Z,3.00
2019-01-05T23:18:02.895Z,3.10
2019-01-05T23:20:49.735Z,3.00
2019-01-05T23:23:44.242Z,3.00
2019-01-05T23:26:32.378Z,3.10
2019-01-05T23:29:19.157Z,3.10
2019-01-05T23:32:17.471Z,3.10
2019-01-05T23:35:18.077Z,3.00
2019-01-05T23:38:09.637Z,3.10
2019-01-05T23:40:57.548Z,3.10
2019-01-05T23:43:47.562Z,3.00
2019-01-05T23:46:39.050Z,3.10
2019-01-05T23:49:21.656Z,3.20
2019-01-05T23:52:10.067Z,3.10
2019-01-05T23:55:10.700Z,3.10
2019-01-05T23:57:59.115Z,3.10
